Time;durP1;ratioP1;P1;durP2;ratioP2;P2;SDS_P1;SDS_P2;PMS_P1;PMS_P2;Temp;Humidity;BMP_temperature;BMP_pressure;BME280_temperature;BME280_humidity;BME280_pressure;Samples;Min_cycle;Max_cycle;Signal;HPM_P1;HPM_P2
2023/11/27 00:02:16;;;;;;;13.02;6.70;;;6.40;56.30;;;;;;5112601;28;20851;-71
2023/11/27 00:04:42;;;;;;;11.90;6.72;;;6.30;56.40;;;;;;5113133;28;20448;-72
2023/11/27 00:07:07;;;;;;;13.77;6.60;;;6.40;56.60;;;;;;5113292;28;20412;-73
2023/11/27 00:09:33;;;;;;;13.27;6.90;;;6.50;55.20;;;;;;5112503;28;20381;-71
2023/11/27 00:12:02;;;;;;;14.60;6.70;;;6.40;55.40;;;;;;5112406;28;20475;-71
2023/11/27 00:14:28;;;;;;;13.40;5.63;;;6.40;55.10;;;;;;5106047;28;20388;-71
2023/11/27 00:16:54;;;;;;;15.45;6.40;;;6.50;52.30;;;;;;5111752;28;20464;-71
2023/11/27 00:19:19;;;;;;;15.27;6.40;;;6.60;53.00;;;;;;5111343;28;20945;-73
2023/11/27 00:21:45;;;;;;;12.35;5.60;;;6.50;53.20;;;;;;5112344;28;20382;-70
2023/11/27 00:24:11;;;;;;;10.77;5.60;;;6.50;53.10;;;;;;5112563;28;20377;-72
2023/11/27 00:26:36;;;;;;;17.33;7.18;;;6.60;52.50;;;;;;5111973;28;20549;-72
2023/11/27 00:29:02;;;;;;;10.75;5.72;;;6.50;53.60;;;;;;5112411;28;20392;-72
2023/11/27 00:31:27;;;;;;;13.05;5.85;;;6.50;52.60;;;;;;5093232;28;20388;-72
2023/11/27 00:33:53;;;;;;;12.48;5.18;;;6.50;53.40;;;;;;5092182;28;20872;-71
2023/11/27 00:36:20;;;;;;;14.45;6.10;;;6.70;51.70;;;;;;5097859;28;20403;-72
2023/11/27 00:38:45;;;;;;;10.93;5.90;;;6.70;51.40;;;;;;5112004;28;20437;-72
2023/11/27 00:41:14;;;;;;;14.95;6.75;;;6.70;51.80;;;;;;5111543;28;20449;-71
2023/11/27 00:43:43;;;;;;;15.18;6.32;;;6.60;51.80;;;;;;5111943;28;20878;-72
2023/11/27 00:46:10;;;;;;;13.50;6.27;;;6.50;52.40;;;;;;5111954;28;20391;-71
2023/11/27 00:48:36;;;;;;;10.63;5.82;;;6.40;52.50;;;;;;5111936;28;20858;-72
2023/11/27 00:51:03;;;;;;;10.48;6.10;;;6.50;53.70;;;;;;5111593;28;20732;-71
2023/11/27 00:53:28;;;;;;;13.00;6.10;;;6.30;54.00;;;;;;5111964;28;20407;-73
2023/11/27 00:55:54;;;;;;;14.80;7.40;;;6.50;52.40;;;;;;5112160;28;20914;-72
2023/11/27 00:58:20;;;;;;;10.70;5.70;;;6.50;52.60;;;;;;5111755;28;20380;-72
2023/11/27 01:00:45;;;;;;;9.85;6.20;;;6.40;53.40;;;;;;5111340;28;20419;-72
2023/11/27 01:03:11;;;;;;;12.05;6.15;;;6.40;53.90;;;;;;5111927;28;20522;-71
2023/11/27 01:05:37;;;;;;;10.98;6.20;;;6.60;51.00;;;;;;5111517;28;20384;-72
2023/11/27 01:08:04;;;;;;;16.73;6.60;;;6.60;51.00;;;;;;5111372;28;20419;-72
2023/11/27 01:10:31;;;;;;;9.77;5.72;;;6.50;51.70;;;;;;5111301;28;20452;-71
2023/11/27 01:12:57;;;;;;;13.00;6.85;;;6.50;51.60;;;;;;5111515;28;20392;-71
2023/11/27 01:15:22;;;;;;;17.00;6.80;;;6.50;51.70;;;;;;5111494;28;20422;-71
2023/11/27 01:17:48;;;;;;;14.13;6.90;;;6.50;51.50;;;;;;5111227;28;20395;-71
2023/11/27 01:20:14;;;;;;;16.33;7.03;;;6.40;51.90;;;;;;5111388;28;20510;-71
2023/11/27 01:22:40;;;;;;;13.00;6.97;;;6.50;52.90;;;;;;5110850;28;20761;-71
2023/11/27 01:25:06;;;;;;;15.57;7.00;;;6.30;53.80;;;;;;5111261;28;20852;-71
2023/11/27 01:27:32;;;;;;;12.70;6.90;;;6.30;54.20;;;;;;5092813;28;20483;-71
2023/11/27 01:29:57;;;;;;;11.30;6.70;;;6.30;53.60;;;;;;5092249;28;20420;-72
2023/11/27 01:32:25;;;;;;;15.38;8.00;;;6.30;54.80;;;;;;5092961;28;20417;-72
2023/11/27 01:34:52;;;;;;;13.05;6.72;;;6.20;55.90;;;;;;5111226;28;20377;-72
2023/11/27 01:37:18;;;;;;;16.40;7.57;;;6.10;56.90;;;;;;5111269;28;20468;-71
2023/11/27 01:39:43;;;;;;;14.18;7.65;;;6.20;56.50;;;;;;5112533;28;20406;-72
2023/11/27 01:42:09;;;;;;;13.83;7.90;;;6.10;56.30;;;;;;5111497;28;20380;-71
2023/11/27 01:44:36;;;;;;;17.03;8.20;;;6.20;57.70;;;;;;5111096;28;20396;-72
2023/11/27 01:47:02;;;;;;;21.60;8.70;;;6.10;58.80;;;;;;5110835;28;20460;-71
2023/11/27 01:49:28;;;;;;;17.02;8.50;;;6.00;59.50;;;;;;5110933;28;20874;-71
2023/11/27 01:51:54;;;;;;;17.88;7.93;;;6.00;59.80;;;;;;5110455;28;20673;-71
2023/11/27 01:54:19;;;;;;;18.80;8.77;;;6.10;59.30;;;;;;5111063;28;20517;-71
2023/11/27 01:56:48;;;;;;;17.90;8.10;;;6.20;57.10;;;;;;5110572;28;20407;-72
2023/11/27 01:59:14;;;;;;;16.67;8.98;;;6.30;57.40;;;;;;5110634;28;20384;-73
2023/11/27 02:01:40;;;;;;;16.65;8.85;;;6.20;58.50;;;;;;5092350;28;20845;-72
2023/11/27 02:04:06;;;;;;;14.98;9.00;;;6.20;55.80;;;;;;5111210;28;20976;-71
2023/11/27 02:06:31;;;;;;;20.80;9.33;;;6.00;58.30;;;;;;5110690;28;20388;-72
2023/11/27 02:08:57;;;;;;;13.43;9.20;;;6.10;58.40;;;;;;5110954;28;20862;-73
2023/11/27 02:11:25;;;;;;;16.90;10.20;;;6.20;57.10;;;;;;5110406;28;20410;-72
2023/11/27 02:13:51;;;;;;;19.17;9.75;;;6.30;56.10;;;;;;5110763;28;20372;-72
2023/11/27 02:16:17;;;;;;;18.77;9.50;;;6.30;56.50;;;;;;5110570;28;20491;-72
2023/11/27 02:18:43;;;;;;;18.80;10.20;;;6.30;56.30;;;;;;5110495;28;20372;-72
2023/11/27 02:21:10;;;;;;;17.88;9.88;;;6.20;58.00;;;;;;5110116;28;20395;-72
2023/11/27 02:23:37;;;;;;;16.30;9.40;;;6.00;58.70;;;;;;5110372;28;20391;-72
2023/11/27 02:26:03;;;;;;;18.95;9.27;;;6.10;60.00;;;;;;5110646;28;20380;-72
2023/11/27 02:28:29;;;;;;;19.20;9.50;;;6.00;61.70;;;;;;5110665;28;20376;-72
2023/11/27 02:30:55;;;;;;;19.77;9.20;;;5.80;63.00;;;;;;5110053;28;20395;-72
2023/11/27 02:33:21;;;;;;;15.93;8.80;;;6.00;62.40;;;;;;5111601;28;20469;-72
2023/11/27 02:35:50;;;;;;;15.80;8.00;;;5.90;63.20;;;;;;5113424;28;20404;-72
2023/11/27 02:38:16;;;;;;;17.90;8.75;;;6.00;60.80;;;;;;5117170;28;20372;-72
2023/11/27 02:40:41;;;;;;;19.58;8.93;;;6.00;61.00;;;;;;5113600;28;20383;-72
2023/11/27 02:43:07;;;;;;;17.73;9.50;;;5.90;63.10;;;;;;5120466;28;20383;-71
2023/11/27 02:45:33;;;;;;;13.65;8.48;;;6.00;61.70;;;;;;5116152;28;20805;-72
2023/11/27 02:47:59;;;;;;;15.90;7.90;;;5.90;61.40;;;;;;5114554;28;20454;-72
2023/11/27 02:50:24;;;;;;;13.93;7.10;;;5.90;61.00;;;;;;5114392;28;20480;-72
2023/11/27 02:52:50;;;;;;;15.48;7.07;;;5.90;60.60;;;;;;5114585;28;20463;-73
2023/11/27 02:55:17;;;;;;;11.93;6.80;;;5.90;60.10;;;;;;5114133;28;20388;-72
2023/11/27 02:57:42;;;;;;;15.00;6.75;;;5.90;61.80;;;;;;5114659;28;20438;-72
2023/11/27 03:00:12;;;;;;;12.98;6.80;;;6.00;61.50;;;;;;5114012;28;20776;-72
2023/11/27 03:02:38;;;;;;;13.32;6.80;;;6.10;61.30;;;;;;5114449;28;20372;-73
2023/11/27 03:05:07;;;;;;;12.05;6.60;;;6.20;59.20;;;;;;5114512;28;20380;-72
2023/11/27 03:07:33;;;;;;;14.23;6.43;;;6.10;59.40;;;;;;5114231;28;20380;-72
2023/11/27 03:09:59;;;;;;;14.30;7.30;;;6.10;59.20;;;;;;5114472;28;20734;-72
2023/11/27 03:12:25;;;;;;;13.10;7.15;;;6.00;59.40;;;;;;5114430;28;20464;-72
2023/11/27 03:14:50;;;;;;;12.27;7.40;;;6.00;61.50;;;;;;5114282;28;20863;-72
2023/11/27 03:17:17;;;;;;;12.18;7.10;;;6.10;60.80;;;;;;5114125;28;20866;-72
2023/11/27 03:19:43;;;;;;;10.02;6.57;;;6.10;59.60;;;;;;5113722;28;20384;-72
2023/11/27 03:22:08;;;;;;;12.80;7.37;;;5.80;61.70;;;;;;5113419;28;20489;-72
2023/11/27 03:24:34;;;;;;;14.27;7.23;;;5.80;65.00;;;;;;5113900;28;20420;-73
2023/11/27 03:26:59;;;;;;;14.03;6.77;;;5.70;65.10;;;;;;5113678;28;20798;-73
2023/11/27 03:29:25;;;;;;;16.90;8.00;;;5.80;66.30;;;;;;5114243;28;20379;-72
2023/11/27 03:31:51;;;;;;;13.97;7.27;;;5.80;65.20;;;;;;5113414;28;20384;-73
2023/11/27 03:34:16;;;;;;;13.13;7.70;;;5.90;64.40;;;;;;5114783;28;20472;-72
2023/11/27 03:36:42;;;;;;;13.13;8.40;;;6.00;62.90;;;;;;5113442;28;20407;-72
2023/11/27 03:39:07;;;;;;;19.87;8.50;;;6.10;62.10;;;;;;5113767;28;20471;-72
2023/11/27 03:41:33;;;;;;;11.40;7.40;;;6.10;62.20;;;;;;5113208;28;20379;-72
2023/11/27 03:43:59;;;;;;;14.60;8.30;;;6.10;60.50;;;;;;5113867;28;20747;-72
2023/11/27 03:46:25;;;;;;;11.07;7.00;;;6.20;60.10;;;;;;5113258;28;20433;-72
2023/11/27 03:48:51;;;;;;;13.77;8.30;;;6.10;57.20;;;;;;5113702;28;20388;-72
2023/11/27 03:51:16;;;;;;;14.88;8.73;;;6.00;59.60;;;;;;5112492;28;20393;-72
2023/11/27 03:53:42;;;;;;;19.67;8.50;;;5.90;60.70;;;;;;5094196;28;20388;-72
2023/11/27 03:56:08;;;;;;;16.05;8.80;;;6.00;61.30;;;;;;5113390;28;20549;-72
2023/11/27 03:58:34;;;;;;;13.70;8.13;;;5.90;62.00;;;;;;5113207;28;20377;-71
2023/11/27 04:01:03;;;;;;;13.17;7.87;;;5.90;63.40;;;;;;5112789;28;20372;-72
2023/11/27 04:03:29;;;;;;;11.70;6.97;;;6.00;61.80;;;;;;5112898;28;20384;-72
2023/11/27 04:05:54;;;;;;;15.77;8.93;;;6.20;58.80;;;;;;5112726;28;20816;-72
2023/11/27 04:08:20;;;;;;;17.50;8.93;;;6.00;61.60;;;;;;5112813;28;20410;-72
2023/11/27 04:10:45;;;;;;;14.50;8.90;;;5.90;63.60;;;;;;5113137;28;20372;-72
2023/11/27 04:13:11;;;;;;;18.63;9.37;;;5.80;65.30;;;;;;5112776;28;20391;-72
2023/11/27 04:15:36;;;;;;;19.70;9.30;;;5.70;67.10;;;;;;5112531;28;20909;-71
2023/11/27 04:18:02;;;;;;;16.70;8.40;;;5.80;67.20;;;;;;5112690;28;20380;-71
2023/11/27 04:20:28;;;;;;;16.90;8.80;;;5.80;65.10;;;;;;5111999;28;20377;-71
2023/11/27 04:22:53;;;;;;;15.10;8.30;;;5.80;66.50;;;;;;5112392;28;20383;-71
2023/11/27 04:25:19;;;;;;;17.50;8.80;;;5.80;66.10;;;;;;5112487;28;20387;-70
2023/11/27 04:27:45;;;;;;;15.45;8.20;;;5.80;66.60;;;;;;5112445;28;20427;-70
2023/11/27 04:30:12;;;;;;;14.27;9.70;;;5.70;65.00;;;;;;5112362;28;20385;-71
2023/11/27 04:32:37;;;;;;;16.25;8.75;;;5.70;67.80;;;;;;5112287;28;20861;-71
2023/11/27 04:35:03;;;;;;;17.03;9.60;;;5.80;66.20;;;;;;5112503;28;20407;-71
2023/11/27 04:37:30;;;;;;;16.45;9.32;;;5.80;66.00;;;;;;5112620;28;20386;-71
2023/11/27 04:39:56;;;;;;;18.67;10.00;;;5.80;65.50;;;;;;5112165;28;20399;-71
2023/11/27 04:42:22;;;;;;;18.70;10.32;;;5.90;67.20;;;;;;5112112;28;20813;-71
2023/11/27 04:44:49;;;;;;;17.67;10.15;;;5.80;66.80;;;;;;5112016;28;20377;-71
2023/11/27 04:47:16;;;;;;;16.65;10.40;;;5.70;67.40;;;;;;5111872;28;20376;-71
2023/11/27 04:49:42;;;;;;;14.35;9.73;;;5.90;66.20;;;;;;5111801;28;20383;-71
2023/11/27 04:52:07;;;;;;;17.95;10.85;;;5.90;66.00;;;;;;5094299;28;20511;-72
2023/11/27 04:54:33;;;;;;;17.90;11.05;;;5.60;70.30;;;;;;5112068;28;20542;-71
2023/11/27 04:56:59;;;;;;;17.53;10.43;;;5.70;71.60;;;;;;5111659;28;20490;-71
2023/11/27 04:59:26;;;;;;;20.73;11.47;;;5.80;69.40;;;;;;5111711;28;20391;-70
2023/11/27 05:01:52;;;;;;;14.95;10.02;;;5.90;67.80;;;;;;5111299;28;20454;-71
2023/11/27 05:04:18;;;;;;;20.83;11.00;;;5.80;68.20;;;;;;5111279;28;20384;-72
2023/11/27 05:06:44;;;;;;;18.45;10.20;;;5.70;69.30;;;;;;5111270;28;20384;-72
2023/11/27 05:09:12;;;;;;;20.42;11.93;;;5.60;71.10;;;;;;5111663;28;20403;-71
2023/11/27 05:11:38;;;;;;;16.98;10.38;;;5.50;72.60;;;;;;5092942;28;20478;-72
2023/11/27 05:14:04;;;;;;;19.97;11.40;;;5.50;73.20;;;;;;5111821;28;20440;-72
2023/11/27 05:16:30;;;;;;;18.63;11.18;;;5.50;73.70;;;;;;5111203;28;20396;-72
2023/11/27 05:18:55;;;;;;;20.85;11.52;;;5.30;76.60;;;;;;5111352;28;20383;-71
2023/11/27 05:21:21;;;;;;;19.63;11.30;;;5.50;80.00;;;;;;5111123;28;20420;-72
2023/11/27 05:23:47;;;;;;;21.33;12.17;;;5.60;76.30;;;;;;5111295;28;20372;-72
2023/11/27 05:26:13;;;;;;;24.53;11.97;;;5.40;79.40;;;;;;5111215;28;20770;-71
2023/11/27 05:28:39;;;;;;;19.70;11.98;;;5.30;81.20;;;;;;5111205;28;20376;-72
2023/11/27 05:31:06;;;;;;;19.30;11.18;;;5.30;82.00;;;;;;5111448;28;20900;-72
2023/11/27 05:33:32;;;;;;;18.65;9.82;;;5.40;79.30;;;;;;5111108;28;20437;-72
2023/11/27 05:35:57;;;;;;;20.70;11.20;;;5.40;76.90;;;;;;5111118;28;20488;-72
2023/11/27 05:38:23;;;;;;;21.50;11.57;;;5.30;78.50;;;;;;5110810;28;20377;-72
2023/11/27 05:40:52;;;;;;;18.90;10.95;;;5.30;79.00;;;;;;5110686;28;20381;-71
2023/11/27 05:43:19;;;;;;;18.70;10.32;;;5.30;82.50;;;;;;5110940;28;20403;-71
2023/11/27 05:45:45;;;;;;;21.65;11.10;;;5.10;82.00;;;;;;5110778;28;20384;-72
2023/11/27 05:48:11;;;;;;;22.23;11.77;;;5.10;84.00;;;;;;5092170;28;20380;-71
2023/11/27 05:50:41;;;;;;;23.87;12.07;;;5.10;85.00;;;;;;5092610;28;20457;-72
2023/11/27 05:53:12;;;;;;;18.75;11.38;;;5.00;85.80;;;;;;5092339;28;20395;-72
2023/11/27 05:55:40;;;;;;;21.13;10.50;;;5.10;85.80;;;;;;5111104;28;20415;-71
2023/11/27 05:58:06;;;;;;;21.95;11.30;;;5.10;87.10;;;;;;5110633;28;20391;-71
2023/11/27 06:00:32;;;;;;;17.58;11.18;;;5.00;86.80;;;;;;5111127;28;20374;-72
2023/11/27 06:02:58;;;;;;;19.33;10.90;;;5.10;85.10;;;;;;5110715;28;20750;-72
2023/11/27 06:05:24;;;;;;;19.23;11.20;;;5.00;84.70;;;;;;5111016;28;20929;-72
2023/11/27 06:07:50;;;;;;;16.17;9.80;;;5.10;85.50;;;;;;5110622;28;20400;-71
2023/11/27 06:10:16;;;;;;;18.33;9.68;;;5.10;82.30;;;;;;5110498;28;20877;-71
2023/11/27 06:12:42;;;;;;;18.63;10.75;;;5.10;84.90;;;;;;5110948;28;20384;-71
2023/11/27 06:15:10;;;;;;;18.20;10.07;;;5.10;87.80;;;;;;5093896;28;20775;-72
2023/11/27 06:17:35;;;;;;;23.13;11.57;;;5.10;86.90;;;;;;5115485;28;20383;-71
2023/11/27 06:20:01;;;;;;;17.05;9.18;;;5.00;85.10;;;;;;5116027;28;20382;-71
2023/11/27 06:22:27;;;;;;;23.23;10.38;;;5.10;87.80;;;;;;5114874;28;20425;-71
2023/11/27 06:24:53;;;;;;;16.60;10.60;;;5.10;87.80;;;;;;5114695;28;20413;-71
2023/11/27 06:27:18;;;;;;;18.83;10.00;;;5.00;89.30;;;;;;5115354;28;20440;-71
2023/11/27 06:29:44;;;;;;;19.43;10.30;;;5.10;89.00;;;;;;5114425;28;20384;-71
2023/11/27 06:32:09;;;;;;;19.93;9.80;;;5.00;93.00;;;;;;5114325;28;20380;-71
2023/11/27 06:34:35;;;;;;;21.87;9.87;;;5.00;92.30;;;;;;5096109;28;20384;-71
2023/11/27 06:37:01;;;;;;;18.27;9.80;;;4.80;95.70;;;;;;5114059;28;20410;-71
2023/11/27 06:39:27;;;;;;;15.90;9.57;;;5.10;93.10;;;;;;5114173;28;20440;-71
2023/11/27 06:41:53;;;;;;;17.60;9.48;;;5.10;93.30;;;;;;5114226;28;20421;-72
2023/11/27 06:44:19;;;;;;;23.00;10.80;;;5.10;92.60;;;;;;5114352;28;20380;-72
2023/11/27 06:46:45;;;;;;;29.58;15.35;;;5.00;94.20;;;;;;5114212;28;20818;-72
2023/11/27 06:49:11;;;;;;;18.98;10.30;;;5.00;98.90;;;;;;5114565;28;20380;-72
2023/11/27 06:51:37;;;;;;;17.55;10.52;;;4.90;99.50;;;;;;5114514;28;20490;-72
2023/11/27 06:54:03;;;;;;;19.50;11.00;;;4.80;99.90;;;;;;5114506;28;20813;-72
2023/11/27 06:56:33;;;;;;;16.48;9.70;;;4.90;99.90;;;;;;5113858;28;20396;-73
2023/11/27 06:59:00;;;;;;;19.98;9.95;;;5.10;99.90;;;;;;5114002;28;20376;-71
2023/11/27 07:01:28;;;;;;;18.00;9.82;;;5.20;96.30;;;;;;5113681;28;20385;-72
2023/11/27 07:03:54;;;;;;;18.52;9.23;;;5.00;97.80;;;;;;5113950;28;20418;-72
2023/11/27 07:06:20;;;;;;;20.93;10.37;;;5.10;99.90;;;;;;5113425;28;20428;-72
2023/11/27 07:08:45;;;;;;;14.97;8.87;;;4.90;99.90;;;;;;5113509;28;20467;-71
2023/11/27 07:11:11;;;;;;;16.23;8.80;;;4.80;99.90;;;;;;5113293;28;20410;-71
2023/11/27 07:13:36;;;;;;;16.35;8.95;;;4.80;99.90;;;;;;5113669;28;20387;-71
2023/11/27 07:16:02;;;;;;;12.50;8.50;;;5.00;98.90;;;;;;5113276;28;20415;-72
2023/11/27 07:18:29;;;;;;;18.90;9.20;;;5.00;99.90;;;;;;5113336;28;20738;-73
2023/11/27 07:20:57;;;;;;;13.57;8.80;;;5.00;99.90;;;;;;5113262;28;20377;-72
2023/11/27 07:23:23;;;;;;;18.55;9.80;;;5.00;98.10;;;;;;5095407;28;20468;-72
2023/11/27 07:25:49;;;;;;;15.93;10.10;;;5.10;98.10;;;;;;5113313;28;20890;-71
2023/11/27 07:28:15;;;;;;;20.25;11.80;;;5.20;94.20;;;;;;5113399;28;20384;-72
2023/11/27 07:30:41;;;;;;;13.50;9.50;;;5.10;96.10;;;;;;5113504;28;20525;-71
2023/11/27 07:33:06;;;;;;;19.47;10.40;;;5.00;98.30;;;;;;5113292;28;20400;-72
2023/11/27 07:35:36;;;;;;;18.65;10.85;;;5.00;99.80;;;;;;5114142;28;20389;-73
2023/11/27 07:38:01;;;;;;;18.65;9.70;;;4.90;99.90;;;;;;5094980;28;20392;-71
2023/11/27 07:40:28;;;;;;;17.90;9.68;;;5.00;99.90;;;;;;5112821;28;20874;-72
2023/11/27 07:42:54;;;;;;;14.90;8.43;;;4.90;98.30;;;;;;5113621;28;20769;-72
2023/11/27 07:45:20;;;;;;;14.40;9.23;;;4.90;98.60;;;;;;5113367;28;20380;-72
2023/11/27 07:47:46;;;;;;;18.80;10.38;;;4.80;99.90;;;;;;5095225;28;20376;-73
2023/11/27 07:50:12;;;;;;;16.77;9.73;;;4.90;99.90;;;;;;5113164;28;20392;-72
2023/11/27 07:52:39;;;;;;;21.77;10.52;;;4.90;99.90;;;;;;5113540;28;20385;-72
2023/11/27 07:55:05;;;;;;;15.57;8.38;;;5.10;99.90;;;;;;5113219;28;20383;-72
2023/11/27 07:57:33;;;;;;;17.65;9.20;;;4.90;98.70;;;;;;5112884;28;20415;-71
2023/11/27 08:00:00;;;;;;;16.27;9.18;;;4.90;99.00;;;;;;5112841;28;20447;-71
2023/11/27 08:02:25;;;;;;;14.75;8.73;;;4.80;99.90;;;;;;5113174;28;20379;-71
2023/11/27 08:04:51;;;;;;;15.55;8.90;;;4.70;99.90;;;;;;5113278;28;20380;-72
2023/11/27 08:07:16;;;;;;;13.00;8.00;;;4.90;99.90;;;;;;5112570;28;20471;-71
2023/11/27 08:09:49;;;;;;;17.83;9.27;;;4.90;96.60;;;;;;5113137;28;20433;-71
2023/11/27 08:12:16;;;;;;;16.27;9.60;;;4.80;99.90;;;;;;5112752;28;20977;-72
2023/11/27 08:14:41;;;;;;;15.60;8.07;;;4.70;99.90;;;;;;5112847;28;20759;-71
2023/11/27 08:17:07;;;;;;;16.03;8.47;;;4.80;99.90;;;;;;5112408;28;20408;-71
2023/11/27 08:19:33;;;;;;;13.07;8.10;;;4.70;99.90;;;;;;5112444;28;20393;-73
2023/11/27 08:22:03;;;;;;;13.75;8.50;;;4.80;99.90;;;;;;5112712;28;20384;-71
2023/11/27 08:24:34;;;;;;;9.93;6.97;;;4.90;98.50;;;;;;5112703;28;20447;-72
2023/11/27 08:27:01;;;;;;;12.60;8.80;;;4.60;97.20;;;;;;5112555;28;20372;-72
2023/11/27 08:29:30;;;;;;;12.65;8.75;;;4.60;99.90;;;;;;5094460;28;20750;-71
2023/11/27 08:32:00;;;;;;;11.13;8.02;;;4.60;99.60;;;;;;5112421;28;20479;-71
2023/11/27 08:34:26;;;;;;;12.15;7.72;;;4.60;98.80;;;;;;5111947;28;20456;-72
2023/11/27 08:36:51;;;;;;;10.40;7.40;;;4.60;99.40;;;;;;5112260;28;20400;-72
2023/11/27 08:39:17;;;;;;;12.48;8.00;;;4.60;99.90;;;;;;5111716;28;20377;-72
2023/11/27 08:41:43;;;;;;;11.30;7.73;;;4.60;99.90;;;;;;5111880;28;20376;-72
2023/11/27 08:44:09;;;;;;;12.27;7.35;;;4.70;99.90;;;;;;5112312;28;20379;-72
2023/11/27 08:46:36;;;;;;;11.20;7.85;;;4.50;99.90;;;;;;5112247;28;20380;-72
2023/11/27 08:49:02;;;;;;;18.17;8.00;;;4.40;99.90;;;;;;5111262;28;20445;-73
2023/11/27 08:51:27;;;;;;;9.68;6.90;;;4.50;99.90;;;;;;5100418;28;20391;-73
2023/11/27 08:53:53;;;;;;;11.27;7.10;;;4.40;99.90;;;;;;5092122;28;20404;-71
2023/11/27 08:56:21;;;;;;;13.33;7.40;;;4.40;99.90;;;;;;5108985;28;20407;-71
2023/11/27 08:58:47;;;;;;;13.75;7.57;;;4.60;99.90;;;;;;5111911;28;20408;-71
2023/11/27 09:01:21;;;;;;;11.88;7.50;;;4.70;99.90;;;;;;5110189;28;20785;-71
2023/11/27 09:03:47;;;;;;;18.85;9.00;;;4.60;99.90;;;;;;5111587;28;20377;-72
2023/11/27 09:06:14;;;;;;;10.07;7.40;;;4.80;99.90;;;;;;5111336;28;20376;-71
2023/11/27 09:08:40;;;;;;;12.45;6.60;;;4.70;99.90;;;;;;5111620;28;20467;-72
2023/11/27 09:11:07;;;;;;;10.82;6.82;;;4.70;99.90;;;;;;5106713;28;20400;-72
2023/11/27 09:13:33;;;;;;;11.77;6.75;;;4.70;99.90;;;;;;5092221;28;20754;-71
2023/11/27 09:15:59;;;;;;;9.90;5.80;;;4.70;98.10;;;;;;5093958;28;20404;-71
2023/11/27 09:18:25;;;;;;;6.65;5.63;;;4.70;99.90;;;;;;5111078;28;20714;-71
2023/11/27 09:20:51;;;;;;;9.37;6.00;;;4.70;99.40;;;;;;5111088;28;20373;-71
2023/11/27 09:23:19;;;;;;;14.53;7.50;;;4.50;99.50;;;;;;5112964;28;20825;-72
2023/11/27 09:25:45;;;;;;;9.90;7.17;;;4.60;99.90;;;;;;5111512;28;20494;-72
2023/11/27 09:28:11;;;;;;;15.02;7.25;;;4.60;99.90;;;;;;5111337;28;20387;-72
2023/11/27 09:30:37;;;;;;;9.87;6.80;;;4.70;99.90;;;;;;5111126;28;20754;-72
2023/11/27 09:33:04;;;;;;;11.83;7.03;;;4.50;99.90;;;;;;5105710;28;20861;-73
2023/11/27 09:35:29;;;;;;;9.18;6.20;;;4.70;99.90;;;;;;5090792;28;20884;-72
2023/11/27 09:37:55;;;;;;;7.60;6.40;;;4.50;99.90;;;;;;5090881;28;20382;-71
2023/11/27 09:40:21;;;;;;;9.50;6.10;;;4.50;99.90;;;;;;5090397;28;20370;-72
2023/11/27 09:42:47;;;;;;;7.55;5.80;;;4.70;99.90;;;;;;5090814;28;20382;-72
2023/11/27 09:45:13;;;;;;;10.90;6.10;;;4.70;99.90;;;;;;5095896;28;20794;-71
2023/11/27 09:47:42;;;;;;;8.00;5.50;;;4.70;99.90;;;;;;5111567;28;20877;-72
2023/11/27 09:50:10;;;;;;;9.32;5.57;;;4.70;99.50;;;;;;5110126;28;20388;-73
2023/11/27 09:53:08;;;;;;;6.83;4.80;;;4.90;96.00;;;;;;5110869;28;20380;-73
2023/11/27 09:55:40;;;;;;;7.50;4.75;;;4.80;94.80;;;;;;5110482;28;20416;-74
2023/11/27 09:58:08;;;;;;;7.13;4.93;;;4.70;97.00;;;;;;5110742;28;20843;-73
2023/11/27 10:00:35;;;;;;;8.18;5.32;;;4.80;95.50;;;;;;5110595;28;20620;-71
2023/11/27 10:03:02;;;;;;;8.83;5.07;;;4.90;96.70;;;;;;5111103;28;20785;-72
2023/11/27 10:05:28;;;;;;;5.75;5.20;;;4.80;99.90;;;;;;5101680;28;20418;-73
2023/11/27 10:07:54;;;;;;;7.77;5.17;;;4.80;99.90;;;;;;5090755;28;20923;-73
2023/11/27 10:10:26;;;;;;;9.40;4.60;;;5.10;97.20;;;;;;5089685;28;20749;-71
2023/11/27 10:12:58;;;;;;;11.25;5.70;;;5.00;90.10;;;;;;5090851;28;20374;-72
2023/11/27 10:15:27;;;;;;;9.13;5.60;;;5.00;95.60;;;;;;5093630;28;20397;-72
2023/11/27 10:17:57;;;;;;;9.68;6.13;;;5.00;92.60;;;;;;5073386;28;20403;-72
2023/11/27 10:20:26;;;;;;;5.78;4.38;;;5.10;91.20;;;;;;5090287;28;20384;-72
2023/11/27 10:22:54;;;;;;;9.07;5.78;;;4.90;93.50;;;;;;5091408;28;20785;-72
2023/11/27 10:25:23;;;;;;;4.65;4.07;;;5.00;96.80;;;;;;5105581;28;20491;-73
2023/11/27 10:27:57;;;;;;;5.47;4.00;;;4.90;89.90;;;;;;5110734;28;20443;-73
2023/11/27 10:30:29;;;;;;;5.45;4.10;;;4.80;93.60;;;;;;5109773;28;20878;-72
2023/11/27 10:32:56;;;;;;;6.50;4.70;;;4.60;97.30;;;;;;5072499;28;20393;-72
2023/11/27 10:35:24;;;;;;;5.63;4.30;;;4.90;98.60;;;;;;5094573;28;20381;-72
2023/11/27 10:37:54;;;;;;;8.18;5.28;;;4.90;95.00;;;;;;5090748;28;20845;-73
2023/11/27 10:40:20;;;;;;;8.80;4.35;;;5.00;95.00;;;;;;5090393;28;20776;-72
2023/11/27 10:42:47;;;;;;;7.15;4.80;;;4.80;94.10;;;;;;5089915;28;20389;-73
2023/11/27 10:45:20;;;;;;;6.82;4.53;;;4.60;98.50;;;;;;5089973;28;20478;-74
2023/11/27 10:47:48;;;;;;;6.60;4.43;;;4.80;98.30;;;;;;5089903;28;20390;-73
2023/11/27 10:50:15;;;;;;;8.53;4.60;;;4.80;96.50;;;;;;5089284;28;20397;-72
2023/11/27 10:52:44;;;;;;;7.25;4.60;;;4.90;95.50;;;;;;5090007;28;20382;-73
2023/11/27 10:55:15;;;;;;;6.60;4.63;;;5.00;94.00;;;;;;5090165;28;20913;-72
2023/11/27 10:57:43;;;;;;;7.20;3.88;;;4.90;95.60;;;;;;5089951;28;20890;-73
2023/11/27 11:00:09;;;;;;;4.95;4.22;;;4.90;92.30;;;;;;5089220;28;20481;-73
2023/11/27 11:02:37;;;;;;;4.75;3.55;;;5.10;90.60;;;;;;5092765;28;20393;-73
2023/11/27 11:05:05;;;;;;;4.72;3.75;;;5.00;90.20;;;;;;5093472;28;20382;-71
2023/11/27 11:07:46;;;;;;;6.00;3.90;;;4.80;91.10;;;;;;5093498;28;20390;-72
2023/11/27 11:10:15;;;;;;;6.28;4.40;;;4.60;96.20;;;;;;5093189;28;20706;-72
2023/11/27 11:12:41;;;;;;;6.78;4.20;;;4.70;98.30;;;;;;5093647;28;20390;-72
2023/11/27 11:15:13;;;;;;;4.70;3.95;;;4.70;94.70;;;;;;5093043;28;20405;-72
2023/11/27 11:17:54;;;;;;;7.40;4.03;;;4.70;97.50;;;;;;5093474;28;20897;-72
2023/11/27 11:20:50;;;;;;;4.22;3.83;;;4.70;95.30;;;;;;5093413;28;20868;-72
2023/11/27 11:23:38;;;;;;;3.80;3.30;;;4.90;96.30;;;;;;5093004;28;20381;-72
2023/11/27 11:26:42;;;;;;;4.20;3.80;;;5.00;91.70;;;;;;5093120;28;20926;-73
2023/11/27 11:29:14;;;;;;;7.80;4.30;;;4.70;95.40;;;;;;5075820;28;20468;-73
2023/11/27 11:31:46;;;;;;;5.47;4.45;;;4.60;99.70;;;;;;5092676;28;20447;-73
2023/11/27 11:34:22;;;;;;;8.32;4.80;;;4.80;99.00;;;;;;5093073;28;20978;-73
2023/11/27 11:36:54;;;;;;;5.83;4.50;;;4.70;99.90;;;;;;5092821;28;20439;-72
2023/11/27 11:39:24;;;;;;;7.10;4.88;;;4.80;96.70;;;;;;5093540;28;20427;-72
2023/11/27 11:41:57;;;;;;;5.47;4.10;;;4.60;99.60;;;;;;5092485;28;20386;-72
2023/11/27 11:44:24;;;;;;;6.85;4.40;;;4.80;98.50;;;;;;5092627;28;20382;-72
2023/11/27 11:46:52;;;;;;;8.25;5.15;;;5.00;96.20;;;;;;5074233;28;20394;-72
2023/11/27 11:49:28;;;;;;;7.15;4.35;;;5.10;91.20;;;;;;5092463;28;20821;-72
2023/11/27 11:52:06;;;;;;;9.25;4.75;;;4.80;97.80;;;;;;5124990;22;20431;-74
2023/11/27 11:54:38;;;;;;;5.28;4.32;;;4.80;97.90;;;;;;5113821;28;20393;-74
2023/11/27 11:57:21;;;;;;;7.07;5.00;;;4.70;99.90;;;;;;5113812;28;20407;-74
2023/11/27 11:59:49;;;;;;;4.80;4.30;;;4.80;99.90;;;;;;5113847;28;20510;-73
2023/11/27 12:02:19;;;;;;;7.38;4.75;;;4.90;98.00;;;;;;5113212;28;20862;-75
2023/11/27 12:04:44;;;;;;;6.75;4.50;;;4.80;99.90;;;;;;5113852;28;20418;-73
2023/11/27 12:07:10;;;;;;;5.07;4.38;;;4.90;99.40;;;;;;5114125;28;20384;-74
2023/11/27 12:09:41;;;;;;;6.60;4.72;;;5.00;99.90;;;;;;5114351;28;20387;-74
2023/11/27 12:12:08;;;;;;;7.13;5.40;;;4.90;99.90;;;;;;5126068;28;20384;-75
2023/11/27 12:14:35;;;;;;;5.95;4.13;;;4.90;99.90;;;;;;5126822;28;20381;-73
2023/11/27 12:17:00;;;;;;;8.98;5.15;;;5.00;98.00;;;;;;5128007;28;20400;-74
2023/11/27 12:19:27;;;;;;;7.50;5.10;;;5.00;97.10;;;;;;5126264;28;20388;-75
2023/11/27 12:21:53;;;;;;;5.07;4.57;;;4.90;99.90;;;;;;5123525;28;20448;-74
2023/11/27 12:24:19;;;;;;;5.00;4.30;;;4.80;99.60;;;;;;5113373;28;20376;-75
2023/11/27 12:26:53;;;;;;;5.05;4.40;;;4.90;99.90;;;;;;5112953;28;20395;-74
2023/11/27 12:29:20;;;;;;;4.80;4.40;;;5.00;98.20;;;;;;5128786;28;20385;-72
2023/11/27 12:31:46;;;;;;;7.95;5.00;;;5.00;98.50;;;;;;5122948;28;20489;-76
2023/11/27 12:34:20;;;;;;;7.13;5.15;;;4.90;99.90;;;;;;5115048;28;20372;-74
2023/11/27 12:36:46;;;;;;;6.22;4.65;;;4.90;99.90;;;;;;5112950;28;20766;-74
2023/11/27 12:39:25;;;;;;;5.82;4.40;;;4.90;99.90;;;;;;5113747;28;20739;-74
2023/11/27 12:42:01;;;;;;;9.82;5.07;;;4.90;99.10;;;;;;5113217;28;20846;-75
2023/11/27 12:44:29;;;;;;;4.90;4.38;;;4.90;98.50;;;;;;5112707;28;20403;-73
2023/11/27 12:46:55;;;;;;;5.80;4.22;;;4.90;99.70;;;;;;5113107;28;20805;-73
2023/11/27 12:49:25;;;;;;;8.35;5.10;;;4.90;96.60;;;;;;5113848;28;20384;-73